createdAt,value
2018-12-11T00:00:04.733Z,-81
2018-12-11T00:01:07.046Z,-79
2018-12-11T00:02:05.002Z,-80
2018-12-11T00:03:04.745Z,-81
2018-12-11T00:04:04.890Z,-81
2018-12-11T00:05:04.760Z,-81
2018-12-11T00:06:04.709Z,-80
2018-12-11T00:07:04.817Z,-81
2018-12-11T00:08:04.975Z,-79
2018-12-11T00:09:05.754Z,-80
2018-12-11T00:10:04.874Z,-80
2018-12-11T00:11:04.765Z,-80
2018-12-11T00:12:04.837Z,-80
2018-12-11T00:13:04.883Z,-79
2018-12-11T00:14:04.971Z,-79
2018-12-11T00:15:04.826Z,-80
2018-12-11T00:16:04.930Z,-79
2018-12-11T00:17:04.840Z,-80
2018-12-11T00:18:04.764Z,-81
2018-12-11T00:19:04.819Z,-81
2018-12-11T00:20:05.094Z,-79
2018-12-11T00:21:04.848Z,-81
2018-12-11T00:22:04.782Z,-81
2018-12-11T00:23:05.032Z,-82
2018-12-11T00:24:04.800Z,-81
2018-12-11T00:25:04.721Z,-80
2018-12-11T00:26:04.692Z,-81
2018-12-11T00:27:04.734Z,-81
2018-12-11T00:28:04.920Z,-80
2018-12-11T00:29:05.561Z,-80
2018-12-11T00:30:06.002Z,-80
2018-12-11T00:31:04.871Z,-81
2018-12-11T00:32:04.849Z,-81
2018-12-11T00:33:05.142Z,-79
2018-12-11T00:34:04.703Z,-81
2018-12-11T00:35:04.759Z,-81
2018-12-11T00:36:04.909Z,-80
2018-12-11T00:37:04.721Z,-80
2018-12-11T00:38:04.670Z,-80
2018-12-11T00:39:04.772Z,-80
2018-12-11T00:40:04.763Z,-80
2018-12-11T00:41:04.846Z,-81
2018-12-11T00:42:04.787Z,-79
2018-12-11T00:43:04.782Z,-80
2018-12-11T00:44:04.755Z,-80
2018-12-11T00:45:05.533Z,-78
2018-12-11T00:46:04.704Z,-81
2018-12-11T00:47:04.833Z,-80
2018-12-11T00:48:04.849Z,-81
2018-12-11T00:49:04.738Z,-81
2018-12-11T00:50:04.828Z,-81
2018-12-11T00:51:04.845Z,-79
2018-12-11T00:52:04.699Z,-81
2018-12-11T00:53:05.014Z,-80
2018-12-11T00:54:04.826Z,-80
2018-12-11T00:55:04.943Z,-79
2018-12-11T00:56:05.043Z,-81
2018-12-11T00:57:04.795Z,-81
2018-12-11T00:58:04.666Z,-81
2018-12-11T00:59:04.665Z,-81
2018-12-11T01:00:04.842Z,-81
2018-12-11T01:01:04.786Z,-80
2018-12-11T01:02:04.671Z,-81
2018-12-11T01:03:04.833Z,-81
2018-12-11T01:04:04.740Z,-80
2018-12-11T01:05:04.823Z,-80
2018-12-11T01:06:05.028Z,-81
2018-12-11T01:07:05.175Z,-80
2018-12-11T01:08:04.967Z,-79
2018-12-11T01:09:04.836Z,-80
2018-12-11T01:10:04.666Z,-80
2018-12-11T01:11:04.734Z,-81
2018-12-11T01:12:04.684Z,-81
2018-12-11T01:13:04.808Z,-79
2018-12-11T01:14:04.852Z,-80
2018-12-11T01:15:04.640Z,-81
2018-12-11T01:16:04.735Z,-81
2018-12-11T01:17:04.631Z,-81
2018-12-11T01:18:04.696Z,-81
2018-12-11T01:19:04.783Z,-81
2018-12-11T01:20:04.797Z,-81
2018-12-11T01:21:05.023Z,-81
2018-12-11T01:22:04.633Z,-81
2018-12-11T01:23:04.676Z,-81
2018-12-11T01:24:04.773Z,-81
2018-12-11T01:25:04.700Z,-80
2018-12-11T01:26:04.681Z,-80
2018-12-11T01:27:04.637Z,-80
2018-12-11T01:28:04.653Z,-81
2018-12-11T01:29:04.717Z,-81
2018-12-11T01:30:04.692Z,-81
2018-12-11T01:31:04.682Z,-81
2018-12-11T01:32:04.643Z,-81
2018-12-11T01:33:04.661Z,-80
2018-12-11T01:34:04.740Z,-81
2018-12-11T01:35:04.734Z,-80
2018-12-11T01:36:04.634Z,-80
2018-12-11T01:37:04.810Z,-80
2018-12-11T01:38:05.448Z,-79
2018-12-11T01:39:04.973Z,-78
2018-12-11T01:40:04.729Z,-80
2018-12-11T01:41:04.591Z,-81
2018-12-11T01:42:04.708Z,-81
2018-12-11T01:43:04.883Z,-79
2018-12-11T01:44:04.792Z,-80
2018-12-11T01:45:05.012Z,-79
2018-12-11T01:46:05.062Z,-81
2018-12-11T01:47:04.950Z,-80
2018-12-11T01:48:04.684Z,-81
2018-12-11T01:49:05.161Z,-79
2018-12-11T01:50:05.199Z,-78
2018-12-11T01:51:05.153Z,-79
2018-12-11T01:52:04.785Z,-80
2018-12-11T01:53:04.696Z,-81
2018-12-11T01:54:04.635Z,-81
2018-12-11T01:55:04.752Z,-81
2018-12-11T01:56:04.872Z,-79
2018-12-11T01:57:04.741Z,-81
2018-12-11T01:58:04.619Z,-80
2018-12-11T01:59:04.619Z,-81
2018-12-11T02:00:04.646Z,-80
2018-12-11T02:01:05.214Z,-79
2018-12-11T02:02:04.831Z,-81
2018-12-11T02:03:04.588Z,-80
2018-12-11T02:04:04.743Z,-80
2018-12-11T02:05:04.625Z,-80
2018-12-11T02:06:04.593Z,-80
2018-12-11T02:07:04.677Z,-80
2018-12-11T02:08:04.814Z,-80
2018-12-11T02:09:04.650Z,-81
2018-12-11T02:10:04.996Z,-79
2018-12-11T02:11:04.609Z,-80
2018-12-11T02:12:04.794Z,-79
2018-12-11T02:13:04.609Z,-81
2018-12-11T02:14:04.717Z,-80
2018-12-11T02:15:04.578Z,-81
2018-12-11T02:16:04.787Z,-79
2018-12-11T02:17:05.103Z,-78
2018-12-11T02:18:04.821Z,-80
2018-12-11T02:19:04.788Z,-79
2018-12-11T02:20:04.656Z,-80
2018-12-11T02:21:04.880Z,-81
2018-12-11T02:22:04.776Z,-80
2018-12-11T02:23:04.792Z,-80
2018-12-11T02:24:04.609Z,-81
2018-12-11T02:25:04.634Z,-81
2018-12-11T02:26:04.635Z,-81
2018-12-11T02:27:04.723Z,-81
2018-12-11T02:28:04.667Z,-81
2018-12-11T02:29:04.739Z,-81
2018-12-11T02:30:04.640Z,-81
2018-12-11T02:31:04.692Z,-81
2018-12-11T02:32:04.890Z,-84
2018-12-11T02:33:04.587Z,-83
2018-12-11T02:34:04.623Z,-83
2018-12-11T02:35:04.930Z,-84
2018-12-11T02:36:04.685Z,-83
2018-12-11T02:37:04.809Z,-84
2018-12-11T02:38:04.571Z,-84
2018-12-11T02:39:04.726Z,-85
2018-12-11T02:40:04.776Z,-85
2018-12-11T02:41:05.083Z,-83
2018-12-11T02:42:04.785Z,-84
2018-12-11T02:43:04.782Z,-84
2018-12-11T02:44:05.395Z,-85
2018-12-11T02:45:05.406Z,-84
2018-12-11T02:46:04.573Z,-83
2018-12-11T02:47:05.422Z,-85
2018-12-11T02:48:04.626Z,-83
2018-12-11T02:49:04.534Z,-82
2018-12-11T02:50:04.727Z,-83
2018-12-11T02:51:04.710Z,-83
2018-12-11T02:52:04.962Z,-83
2018-12-11T02:53:04.540Z,-82
2018-12-11T02:54:04.562Z,-83
2018-12-11T02:55:04.551Z,-83
2018-12-11T02:56:04.510Z,-83
2018-12-11T02:57:04.683Z,-83
2018-12-11T02:58:04.712Z,-82
2018-12-11T02:59:04.521Z,-82
2018-12-11T03:00:04.524Z,-83
2018-12-11T03:01:04.568Z,-82
2018-12-11T03:02:04.552Z,-83
2018-12-11T03:03:04.561Z,-83
2018-12-11T03:04:04.615Z,-83
2018-12-11T03:05:04.557Z,-83
2018-12-11T03:06:04.565Z,-83
2018-12-11T03:07:04.689Z,-85
2018-12-11T03:08:04.509Z,-83
2018-12-11T03:09:04.548Z,-85
2018-12-11T03:10:04.476Z,-82
2018-12-11T03:11:04.497Z,-82
2018-12-11T03:12:04.649Z,-82
2018-12-11T03:13:04.484Z,-82
2018-12-11T03:14:04.592Z,-83
2018-12-11T03:15:04.761Z,-83
2018-12-11T03:16:04.551Z,-82
2018-12-11T03:17:04.624Z,-83
2018-12-11T03:18:04.530Z,-83
2018-12-11T03:19:05.154Z,-83
2018-12-11T03:20:04.678Z,-82
2018-12-11T03:21:04.907Z,-85
2018-12-11T03:22:04.678Z,-84
2018-12-11T03:23:05.085Z,-85
2018-12-11T03:24:04.590Z,-83
2018-12-11T03:25:04.483Z,-82
2018-12-11T03:26:04.638Z,-83
2018-12-11T03:27:04.476Z,-83
2018-12-11T03:28:04.777Z,-84
2018-12-11T03:29:04.658Z,-83
2018-12-11T03:30:05.816Z,-85
2018-12-11T03:31:04.592Z,-83
2018-12-11T03:32:04.717Z,-84
2018-12-11T03:33:04.706Z,-84
2018-12-11T03:34:04.493Z,-83
2018-12-11T03:35:04.715Z,-84
2018-12-11T03:36:04.681Z,-84
2018-12-11T03:37:05.370Z,-85
2018-12-11T03:38:04.657Z,-84
2018-12-11T03:39:04.521Z,-82
2018-12-11T03:40:04.526Z,-83
2018-12-11T03:41:04.457Z,-83
2018-12-11T03:42:04.649Z,-83
2018-12-11T03:43:04.626Z,-82
2018-12-11T03:44:04.482Z,-83
2018-12-11T03:45:04.636Z,-84
2018-12-11T03:46:04.466Z,-83
2018-12-11T03:47:04.706Z,-84
2018-12-11T03:48:04.470Z,-82
2018-12-11T03:49:04.757Z,-84
2018-12-11T03:50:04.535Z,-83
2018-12-11T03:51:04.835Z,-85
2018-12-11T03:52:04.552Z,-83
2018-12-11T03:53:04.663Z,-83
2018-12-11T03:54:04.659Z,-83
2018-12-11T03:55:04.536Z,-83
2018-12-11T03:56:04.498Z,-82
2018-12-11T03:57:04.640Z,-83
2018-12-11T03:58:04.577Z,-82
2018-12-11T03:59:04.588Z,-84
2018-12-11T04:00:04.527Z,-83
2018-12-11T04:01:04.611Z,-83
2018-12-11T04:02:04.526Z,-83
2018-12-11T04:03:05.276Z,-85
2018-12-11T04:04:04.549Z,-84
2018-12-11T04:05:04.562Z,-84
2018-12-11T04:06:04.480Z,-84
2018-12-11T04:07:04.468Z,-83
2018-12-11T04:08:05.057Z,-85
2018-12-11T04:09:04.472Z,-83
2018-12-11T04:10:04.481Z,-82
2018-12-11T04:11:04.584Z,-84
2018-12-11T04:12:04.680Z,-83
2018-12-11T04:13:04.801Z,-85
2018-12-11T04:14:04.673Z,-83
2018-12-11T04:15:04.509Z,-83
2018-12-11T04:16:04.486Z,-82
2018-12-11T04:17:04.707Z,-84
2018-12-11T04:18:04.832Z,-83
2018-12-11T04:19:04.582Z,-84
2018-12-11T04:20:05.296Z,-85
2018-12-11T04:21:04.527Z,-83
2018-12-11T04:22:04.533Z,-83
2018-12-11T04:23:04.517Z,-83
2018-12-11T04:24:04.431Z,-83
2018-12-11T04:25:04.576Z,-83
2018-12-11T04:26:04.436Z,-82
2018-12-11T04:27:04.536Z,-83
2018-12-11T04:28:04.396Z,-82
2018-12-11T04:29:04.532Z,-82
2018-12-11T04:30:04.416Z,-83
2018-12-11T04:31:04.753Z,-83
2018-12-11T04:32:04.582Z,-84
2018-12-11T04:33:04.510Z,-84
2018-12-11T04:34:04.785Z,-84
2018-12-11T04:35:04.471Z,-84
2018-12-11T04:36:04.395Z,-82
2018-12-11T04:37:04.414Z,-83
2018-12-11T04:38:04.396Z,-82
2018-12-11T04:39:04.456Z,-81
2018-12-11T04:40:04.560Z,-80
2018-12-11T04:41:04.505Z,-81
2018-12-11T04:42:04.496Z,-81
2018-12-11T04:43:04.393Z,-80
2018-12-11T04:44:04.387Z,-81
2018-12-11T04:45:04.391Z,-81
2018-12-11T04:46:04.409Z,-81
2018-12-11T04:47:04.370Z,-80
2018-12-11T04:48:04.392Z,-80
2018-12-11T04:49:04.414Z,-80
2018-12-11T04:50:04.472Z,-80
2018-12-11T04:51:04.531Z,-80
2018-12-11T04:52:04.401Z,-80
2018-12-11T04:53:04.697Z,-81
2018-12-11T04:54:04.408Z,-80
2018-12-11T04:55:04.472Z,-80
2018-12-11T04:56:05.403Z,-80
2018-12-11T04:57:04.487Z,-79
2018-12-11T04:58:04.562Z,-81
2018-12-11T04:59:04.502Z,-81
2018-12-11T05:00:04.575Z,-80
2018-12-11T05:01:04.487Z,-80
2018-12-11T05:02:04.511Z,-81
2018-12-11T05:03:04.516Z,-78
2018-12-11T05:04:04.673Z,-78
2018-12-11T05:05:04.571Z,-80
2018-12-11T05:06:04.538Z,-81
2018-12-11T05:07:05.239Z,-81
2018-12-11T05:08:04.357Z,-80
2018-12-11T05:09:04.697Z,-79
2018-12-11T05:10:04.483Z,-80
2018-12-11T05:11:04.501Z,-80
2018-12-11T05:12:05.482Z,-80
2018-12-11T05:13:04.414Z,-80
2018-12-11T05:14:04.541Z,-79
2018-12-11T05:15:04.600Z,-80
2018-12-11T05:16:04.568Z,-80
2018-12-11T05:17:04.613Z,-79
2018-12-11T05:18:04.565Z,-79
2018-12-11T05:19:04.782Z,-79
2018-12-11T05:20:04.541Z,-81
2018-12-11T05:21:04.337Z,-80
2018-12-11T05:22:04.390Z,-80
2018-12-11T05:23:04.519Z,-80
2018-12-11T05:24:04.365Z,-80
2018-12-11T05:25:04.407Z,-81
2018-12-11T05:26:04.536Z,-79
2018-12-11T05:27:04.487Z,-79
2018-12-11T05:28:04.498Z,-80
2018-12-11T05:29:04.364Z,-81
2018-12-11T05:30:04.595Z,-80
2018-12-11T05:31:04.383Z,-80
2018-12-11T05:32:04.611Z,-79
2018-12-11T05:33:04.426Z,-80
2018-12-11T05:34:04.538Z,-80
2018-12-11T05:35:04.543Z,-79
2018-12-11T05:36:04.379Z,-80
2018-12-11T05:37:04.438Z,-80
2018-12-11T05:38:04.376Z,-81
2018-12-11T05:39:04.759Z,-79
2018-12-11T05:40:04.420Z,-81
2018-12-11T05:41:04.345Z,-80
2018-12-11T05:42:04.594Z,-79
2018-12-11T05:43:04.565Z,-79
2018-12-11T05:44:04.299Z,-80
2018-12-11T05:45:04.323Z,-81
2018-12-11T05:46:05.801Z,-79
2018-12-11T05:47:04.493Z,-77
2018-12-11T05:48:04.531Z,-78
2018-12-11T05:49:04.337Z,-78
2018-12-11T05:50:04.486Z,-78
2018-12-11T05:51:04.503Z,-78
2018-12-11T05:52:04.410Z,-79
2018-12-11T05:53:04.534Z,-79
2018-12-11T05:54:04.369Z,-79
2018-12-11T05:55:04.273Z,-79
2018-12-11T05:56:04.385Z,-79
2018-12-11T05:57:04.380Z,-79
2018-12-11T05:58:04.399Z,-79
2018-12-11T05:59:04.678Z,-77
2018-12-11T06:00:04.545Z,-79
2018-12-11T06:01:04.422Z,-79
2018-12-11T06:02:04.339Z,-79
2018-12-11T06:03:04.396Z,-79
2018-12-11T06:04:04.586Z,-78
2018-12-11T06:05:04.316Z,-79
2018-12-11T06:06:04.761Z,-78
2018-12-11T06:07:04.281Z,-79
2018-12-11T06:08:04.303Z,-78
2018-12-11T06:09:04.712Z,-74
2018-12-11T06:10:04.367Z,-77
2018-12-11T06:11:04.249Z,-77
2018-12-11T06:12:04.324Z,-76
2018-12-11T06:13:04.389Z,-77
2018-12-11T06:14:04.289Z,-77
2018-12-11T06:15:04.277Z,-77
2018-12-11T06:16:04.333Z,-76
2018-12-11T06:17:04.256Z,-77
2018-12-11T06:18:04.273Z,-76
2018-12-11T06:19:04.274Z,-77
2018-12-11T06:20:04.318Z,-77
2018-12-11T06:21:04.244Z,-76
2018-12-11T06:22:07.431Z,-76
2018-12-11T06:23:07.788Z,-76
2018-12-11T06:24:04.261Z,-77
2018-12-11T06:25:05.262Z,-79
2018-12-11T06:26:04.283Z,-79
2018-12-11T06:27:04.308Z,-80
2018-12-11T06:28:04.287Z,-79
2018-12-11T06:29:04.335Z,-78
2018-12-11T06:30:04.251Z,-79
2018-12-11T06:31:04.283Z,-79
2018-12-11T06:32:04.252Z,-79
2018-12-11T06:33:04.330Z,-79
2018-12-11T06:34:04.242Z,-79
2018-12-11T06:35:04.349Z,-79
2018-12-11T06:36:04.602Z,-80
2018-12-11T06:37:04.444Z,-80
2018-12-11T06:38:04.297Z,-79
2018-12-11T06:39:04.196Z,-79
2018-12-11T06:40:04.321Z,-79
2018-12-11T06:41:04.522Z,-80
2018-12-11T06:42:05.502Z,-79
2018-12-11T06:43:04.823Z,-79
2018-12-11T06:44:04.970Z,-79
2018-12-11T06:45:06.538Z,-78
2018-12-11T06:46:04.381Z,-79
2018-12-11T06:47:04.414Z,-78
2018-12-11T06:48:04.605Z,-79
2018-12-11T06:49:04.268Z,-78
2018-12-11T06:50:04.218Z,-79
2018-12-11T06:51:05.359Z,-79
2018-12-11T06:52:04.654Z,-80
2018-12-11T06:53:04.295Z,-79
2018-12-11T06:54:04.348Z,-77
2018-12-11T06:55:04.301Z,-77
2018-12-11T06:56:04.597Z,-76
2018-12-11T06:57:04.317Z,-77
2018-12-11T06:58:04.269Z,-77
2018-12-11T06:59:04.428Z,-77
2018-12-11T07:00:04.421Z,-75
2018-12-11T07:01:04.619Z,-74
2018-12-11T07:02:04.188Z,-77
2018-12-11T07:03:04.178Z,-77
2018-12-11T07:04:04.361Z,-76
2018-12-11T07:05:04.466Z,-75
2018-12-11T07:06:04.558Z,-76
2018-12-11T07:07:04.286Z,-77
2018-12-11T07:08:04.203Z,-77
2018-12-11T07:09:04.168Z,-77
2018-12-11T07:10:04.382Z,-76
2018-12-11T07:11:04.184Z,-76
2018-12-11T07:12:04.178Z,-77
2018-12-11T07:13:04.385Z,-78
2018-12-11T07:14:04.359Z,-76
2018-12-11T07:15:04.471Z,-75
2018-12-11T07:16:04.268Z,-77
2018-12-11T07:17:04.245Z,-76
2018-12-11T07:18:04.350Z,-76
2018-12-11T07:19:04.240Z,-77
2018-12-11T07:20:04.349Z,-77
2018-12-11T07:21:04.474Z,-77
2018-12-11T07:22:04.269Z,-77
2018-12-11T07:23:04.259Z,-77
2018-12-11T07:24:04.816Z,-74
2018-12-11T07:25:04.354Z,-76
2018-12-11T07:26:04.189Z,-77
2018-12-11T07:27:04.341Z,-76
2018-12-11T07:28:04.562Z,-76
2018-12-11T07:29:04.399Z,-75
2018-12-11T07:30:04.200Z,-77
2018-12-11T07:31:04.159Z,-77
2018-12-11T07:32:04.389Z,-76
2018-12-11T07:33:04.339Z,-77
2018-12-11T07:34:04.225Z,-76
2018-12-11T07:35:04.230Z,-77
2018-12-11T07:36:04.158Z,-77
2018-12-11T07:37:04.129Z,-77
2018-12-11T07:38:04.954Z,-74
2018-12-11T07:39:04.342Z,-76
2018-12-11T07:40:04.246Z,-77
2018-12-11T07:41:04.364Z,-76
2018-12-11T07:42:04.387Z,-76
2018-12-11T07:43:04.197Z,-77
2018-12-11T07:44:04.444Z,-75
2018-12-11T07:45:04.281Z,-76
2018-12-11T07:46:04.353Z,-77
2018-12-11T07:47:04.313Z,-76
2018-12-11T07:48:04.161Z,-77
2018-12-11T07:49:04.453Z,-75
2018-12-11T07:50:04.214Z,-77
2018-12-11T07:51:04.258Z,-77
2018-12-11T07:52:04.298Z,-77
2018-12-11T07:53:07.029Z,-76
2018-12-11T07:54:04.209Z,-77
2018-12-11T07:55:04.279Z,-76
2018-12-11T07:56:04.183Z,-77
2018-12-11T07:57:04.168Z,-77
2018-12-11T07:58:04.188Z,-77
2018-12-11T07:59:04.227Z,-77
2018-12-11T08:00:04.214Z,-77
2018-12-11T08:01:04.217Z,-76
2018-12-11T08:02:04.214Z,-76
2018-12-11T08:03:04.472Z,-73
2018-12-11T08:04:04.254Z,-76
2018-12-11T08:05:04.144Z,-77
2018-12-11T08:06:04.170Z,-79
2018-12-11T08:07:04.223Z,-79
2018-12-11T08:08:04.186Z,-79
2018-12-11T08:09:04.229Z,-79
2018-12-11T08:10:05.611Z,-80
2018-12-11T08:11:04.193Z,-79
2018-12-11T08:12:08.894Z,-80
2018-12-11T08:13:04.307Z,-79
2018-12-11T08:14:04.074Z,-79
2018-12-11T08:15:04.404Z,-80
2018-12-11T08:16:04.116Z,-79
2018-12-11T08:17:04.398Z,-79
2018-12-11T08:18:04.130Z,-79
2018-12-11T08:19:04.278Z,-79
2018-12-11T08:20:04.248Z,-79
2018-12-11T08:21:04.151Z,-78
2018-12-11T08:22:04.363Z,-79
2018-12-11T08:23:04.339Z,-79
2018-12-11T08:24:04.196Z,-77
2018-12-11T08:25:04.062Z,-76
2018-12-11T08:26:04.224Z,-76
2018-12-11T08:27:04.912Z,-74
2018-12-11T08:28:04.254Z,-76
2018-12-11T08:29:04.264Z,-75
2018-12-11T08:30:04.251Z,-76
2018-12-11T08:31:04.221Z,-76
2018-12-11T08:32:04.067Z,-77
2018-12-11T08:33:04.340Z,-75
2018-12-11T08:34:04.196Z,-77
2018-12-11T08:35:04.203Z,-76
2018-12-11T08:36:04.158Z,-76
2018-12-11T08:37:04.369Z,-74
2018-12-11T08:38:04.169Z,-76
2018-12-11T08:39:04.180Z,-76
2018-12-11T08:40:04.117Z,-77
2018-12-11T08:41:04.263Z,-75
2018-12-11T08:42:06.396Z,-75
2018-12-11T08:43:04.104Z,-77
2018-12-11T08:44:04.416Z,-74
2018-12-11T08:45:04.216Z,-76
2018-12-11T08:46:04.551Z,-74
2018-12-11T08:47:04.373Z,-74
2018-12-11T08:48:04.147Z,-76
2018-12-11T08:49:04.477Z,-75
2018-12-11T08:50:04.251Z,-75
2018-12-11T08:51:04.499Z,-75
2018-12-11T08:52:04.165Z,-77
2018-12-11T08:53:04.088Z,-76
2018-12-11T08:54:04.217Z,-76
2018-12-11T08:55:04.186Z,-77
2018-12-11T08:56:04.129Z,-76
2018-12-11T08:57:05.117Z,-76
2018-12-11T08:58:04.375Z,-75
2018-12-11T08:59:07.310Z,-77
2018-12-11T09:00:04.311Z,-75
2018-12-11T09:01:04.269Z,-76
2018-12-11T09:02:04.035Z,-77
2018-12-11T09:03:04.268Z,-74
2018-12-11T09:04:04.213Z,-77
2018-12-11T09:05:04.325Z,-76
2018-12-11T09:06:04.195Z,-76
2018-12-11T09:07:04.498Z,-75
2018-12-11T09:08:04.036Z,-77
2018-12-11T09:09:04.445Z,-74
2018-12-11T09:10:04.847Z,-72
2018-12-11T09:11:04.267Z,-75
2018-12-11T09:12:04.256Z,-76
2018-12-11T09:13:04.070Z,-77
2018-12-11T09:14:04.014Z,-77
2018-12-11T09:15:04.059Z,-77
2018-12-11T09:16:04.297Z,-75
2018-12-11T09:17:10.812Z,-77
2018-12-11T09:18:04.040Z,-77
2018-12-11T09:19:04.253Z,-76
2018-12-11T09:20:04.280Z,-77
2018-12-11T09:21:04.223Z,-76
2018-12-11T09:22:04.373Z,-75
2018-12-11T09:23:04.074Z,-77
2018-12-11T09:24:04.271Z,-76
2018-12-11T09:25:04.192Z,-75
2018-12-11T09:26:04.042Z,-76
2018-12-11T09:27:04.205Z,-75
2018-12-11T09:28:11.502Z,-74
2018-12-11T09:29:04.020Z,-77
2018-12-11T09:30:04.053Z,-77
2018-12-11T09:31:04.060Z,-76
2018-12-11T09:32:04.224Z,-76
2018-12-11T09:33:04.136Z,-76
2018-12-11T09:34:04.016Z,-76
2018-12-11T09:35:04.028Z,-76
2018-12-11T09:36:04.048Z,-76
2018-12-11T09:37:04.158Z,-76
2018-12-11T09:38:04.198Z,-76
2018-12-11T09:39:03.978Z,-76
2018-12-11T09:40:04.124Z,-75
2018-12-11T09:41:04.234Z,-75
2018-12-11T09:42:07.880Z,-76
2018-12-11T09:43:03.986Z,-76
2018-12-11T09:44:03.962Z,-76
2018-12-11T09:45:03.977Z,-77
2018-12-11T09:46:04.007Z,-76
2018-12-11T09:47:04.066Z,-77
2018-12-11T09:48:04.041Z,-77
2018-12-11T09:49:04.000Z,-76
2018-12-11T09:50:04.092Z,-77
2018-12-11T09:51:04.224Z,-76
2018-12-11T09:52:04.253Z,-76
2018-12-11T09:53:04.238Z,-76
2018-12-11T09:54:03.962Z,-78
2018-12-11T09:55:03.985Z,-78
2018-12-11T09:56:04.203Z,-76
2018-12-11T09:57:04.142Z,-77
2018-12-11T09:58:04.135Z,-77
2018-12-11T09:59:04.193Z,-77
2018-12-11T10:00:04.198Z,-75
2018-12-11T10:01:04.016Z,-79
2018-12-11T10:02:04.042Z,-79
2018-12-11T10:03:04.001Z,-79
2018-12-11T10:04:03.994Z,-78
2018-12-11T10:05:03.983Z,-80
2018-12-11T10:06:03.986Z,-80
2018-12-11T10:07:03.960Z,-80
2018-12-11T10:08:04.197Z,-80
2018-12-11T10:09:03.929Z,-79
2018-12-11T10:10:04.063Z,-80
2018-12-11T10:11:04.302Z,-79
2018-12-11T10:12:04.395Z,-80
2018-12-11T10:13:03.981Z,-79
2018-12-11T10:14:04.767Z,-80
2018-12-11T10:15:04.006Z,-80
2018-12-11T10:16:04.027Z,-80
2018-12-11T10:17:04.136Z,-80
2018-12-11T10:18:03.974Z,-79
2018-12-11T10:19:04.121Z,-79
2018-12-11T10:20:05.861Z,-80
2018-12-11T10:21:03.910Z,-80
2018-12-11T10:22:03.982Z,-77
2018-12-11T10:23:04.343Z,-77
2018-12-11T10:24:03.963Z,-77
2018-12-11T10:25:03.972Z,-77
2018-12-11T10:26:04.321Z,-77
2018-12-11T10:27:03.899Z,-77
2018-12-11T10:28:03.960Z,-77
2018-12-11T10:29:04.744Z,-78
2018-12-11T10:30:04.450Z,-78
2018-12-11T10:31:04.166Z,-78
2018-12-11T10:32:04.137Z,-78
2018-12-11T10:33:03.942Z,-78
2018-12-11T10:34:03.949Z,-78
2018-12-11T10:35:04.020Z,-77
2018-12-11T10:36:04.131Z,-77
2018-12-11T10:37:03.970Z,-77
2018-12-11T10:38:03.915Z,-77
2018-12-11T10:39:03.974Z,-77
2018-12-11T10:40:04.162Z,-77
2018-12-11T10:41:03.885Z,-77
2018-12-11T10:42:04.018Z,-78
2018-12-11T10:43:04.012Z,-78
2018-12-11T10:44:03.880Z,-78
2018-12-11T10:45:03.884Z,-77
2018-12-11T10:46:03.944Z,-77
2018-12-11T10:47:04.262Z,-78
2018-12-11T10:48:04.540Z,-78
2018-12-11T10:49:03.951Z,-78
2018-12-11T10:50:03.889Z,-77
2018-12-11T10:51:03.934Z,-77
2018-12-11T10:52:04.351Z,-77
2018-12-11T10:53:03.995Z,-78
2018-12-11T10:54:03.885Z,-78
2018-12-11T10:55:04.386Z,-77
2018-12-11T10:56:04.918Z,-77
2018-12-11T10:57:03.885Z,-77
2018-12-11T10:58:03.847Z,-77
2018-12-11T10:59:04.139Z,-75
2018-12-11T11:00:03.942Z,-77
2018-12-11T11:01:03.985Z,-78
2018-12-11T11:02:03.941Z,-77
2018-12-11T11:03:03.990Z,-78
2018-12-11T11:04:04.060Z,-78
2018-12-11T11:05:03.916Z,-78
2018-12-11T11:06:04.037Z,-78
2018-12-11T11:07:04.660Z,-78
2018-12-11T11:08:03.864Z,-78
2018-12-11T11:09:03.834Z,-78
2018-12-11T11:10:04.723Z,-76
2018-12-11T11:11:04.846Z,-78
2018-12-11T11:12:05.466Z,-78
2018-12-11T11:13:04.096Z,-78
2018-12-11T11:14:04.011Z,-78
2018-12-11T11:15:05.858Z,-77
2018-12-11T11:16:04.006Z,-78
2018-12-11T11:17:04.003Z,-78
2018-12-11T11:18:03.871Z,-78
2018-12-11T11:19:04.213Z,-75
2018-12-11T11:20:03.984Z,-77
2018-12-11T11:21:03.996Z,-77
2018-12-11T11:22:03.914Z,-78
2018-12-11T11:23:03.882Z,-77
2018-12-11T11:24:03.878Z,-77
2018-12-11T11:25:03.855Z,-78
2018-12-11T11:26:03.911Z,-78
2018-12-11T11:27:03.944Z,-77
2018-12-11T11:28:03.857Z,-78
2018-12-11T11:29:03.903Z,-77
2018-12-11T11:30:04.178Z,-75
2018-12-11T11:31:03.842Z,-78
2018-12-11T11:32:03.940Z,-77
2018-12-11T11:33:03.911Z,-78
2018-12-11T11:34:04.640Z,-75
2018-12-11T11:35:04.000Z,-77
2018-12-11T11:36:03.893Z,-78
2018-12-11T11:37:03.928Z,-77
2018-12-11T11:38:03.836Z,-78
2018-12-11T11:39:03.844Z,-78
2018-12-11T11:40:04.010Z,-77
2018-12-11T11:41:04.005Z,-75
2018-12-11T11:42:03.845Z,-78
2018-12-11T11:43:03.837Z,-77
2018-12-11T11:44:04.097Z,-77
2018-12-11T11:45:04.106Z,-78
2018-12-11T11:46:04.448Z,-78
2018-12-11T11:47:03.979Z,-78
2018-12-11T11:48:04.346Z,-78
2018-12-11T11:49:03.842Z,-78
2018-12-11T11:50:03.830Z,-78
2018-12-11T11:51:04.093Z,-78
2018-12-11T11:52:04.028Z,-78
2018-12-11T11:53:03.800Z,-77
2018-12-11T11:54:03.958Z,-78
2018-12-11T11:55:03.985Z,-78
2018-12-11T11:56:03.886Z,-78
2018-12-11T11:57:03.898Z,-78
2018-12-11T11:58:03.863Z,-78
2018-12-11T11:59:03.793Z,-78
2018-12-11T12:00:04.006Z,-78
2018-12-11T12:01:03.877Z,-78
2018-12-11T12:02:03.809Z,-78
2018-12-11T12:03:03.885Z,-78
2018-12-11T12:04:03.788Z,-78
2018-12-11T12:05:03.816Z,-78
2018-12-11T12:06:03.852Z,-78
2018-12-11T12:07:03.802Z,-78
2018-12-11T12:08:03.985Z,-78
2018-12-11T12:09:03.781Z,-78
2018-12-11T12:10:04.005Z,-78
2018-12-11T12:11:05.159Z,-78
2018-12-11T12:12:06.993Z,-78
2018-12-11T12:13:03.994Z,-77
2018-12-11T12:14:04.024Z,-77
2018-12-11T12:15:03.789Z,-78
2018-12-11T12:16:03.842Z,-78
2018-12-11T12:17:03.770Z,-78
2018-12-11T12:18:04.191Z,-79
2018-12-11T12:19:03.829Z,-78
2018-12-11T12:20:04.564Z,-78
2018-12-11T12:21:04.114Z,-78
2018-12-11T12:22:03.876Z,-78
2018-12-11T12:23:03.745Z,-77
2018-12-11T12:24:04.617Z,-79
2018-12-11T12:25:03.795Z,-79
2018-12-11T12:26:03.796Z,-79
2018-12-11T12:27:03.938Z,-78
2018-12-11T12:28:03.917Z,-78
2018-12-11T12:29:03.889Z,-78
2018-12-11T12:30:03.934Z,-78
2018-12-11T12:31:03.801Z,-78
2018-12-11T12:32:03.870Z,-77
2018-12-11T12:33:04.120Z,-75
2018-12-11T12:34:03.755Z,-78
2018-12-11T12:35:03.797Z,-78
2018-12-11T12:36:03.739Z,-78
2018-12-11T12:37:03.764Z,-78
2018-12-11T12:38:03.836Z,-78
2018-12-11T12:39:03.823Z,-77
2018-12-11T12:40:05.193Z,-77
2018-12-11T12:41:03.738Z,-78
2018-12-11T12:42:03.906Z,-80
2018-12-11T12:43:03.908Z,-80
2018-12-11T12:44:03.871Z,-80
2018-12-11T12:45:03.801Z,-79
2018-12-11T12:46:03.758Z,-78
2018-12-11T12:47:03.749Z,-78
2018-12-11T12:48:03.739Z,-78
2018-12-11T12:49:03.764Z,-78
2018-12-11T12:50:03.921Z,-77
2018-12-11T12:51:03.781Z,-80
2018-12-11T12:52:03.849Z,-80
2018-12-11T12:53:03.951Z,-80
2018-12-11T12:54:03.950Z,-78
2018-12-11T12:55:03.768Z,-78
2018-12-11T12:56:04.223Z,-75
2018-12-11T12:57:03.829Z,-78
2018-12-11T12:58:03.716Z,-78
2018-12-11T12:59:05.125Z,-80
2018-12-11T13:00:03.918Z,-77
2018-12-11T13:01:03.717Z,-78
2018-12-11T13:02:03.724Z,-78
2018-12-11T13:03:03.755Z,-78
2018-12-11T13:04:03.875Z,-77
2018-12-11T13:05:04.064Z,-76
2018-12-11T13:06:03.706Z,-78
2018-12-11T13:07:03.746Z,-78
2018-12-11T13:08:03.694Z,-77
2018-12-11T13:09:04.188Z,-74
2018-12-11T13:10:03.821Z,-78
2018-12-11T13:11:03.844Z,-78
2018-12-11T13:12:03.749Z,-78
2018-12-11T13:13:03.809Z,-78
2018-12-11T13:14:03.739Z,-77
2018-12-11T13:15:07.816Z,-75
2018-12-11T13:16:03.852Z,-77
2018-12-11T13:17:03.930Z,-77
2018-12-11T13:18:03.717Z,-78
2018-12-11T13:19:03.998Z,-75
2018-12-11T13:20:03.933Z,-76
2018-12-11T13:21:04.526Z,-74
2018-12-11T13:22:03.777Z,-78
2018-12-11T13:23:04.977Z,-77
2018-12-11T13:24:03.691Z,-77
2018-12-11T13:25:03.780Z,-78
2018-12-11T13:26:04.182Z,-74
2018-12-11T13:27:03.788Z,-78
2018-12-11T13:28:03.881Z,-78
2018-12-11T13:29:03.806Z,-77
2018-12-11T13:30:03.833Z,-77
2018-12-11T13:31:03.907Z,-75
2018-12-11T13:32:03.781Z,-77
2018-12-11T13:33:03.754Z,-77
2018-12-11T13:34:03.747Z,-78
2018-12-11T13:35:03.817Z,-77
2018-12-11T13:36:04.151Z,-76
2018-12-11T13:37:03.801Z,-76
2018-12-11T13:38:04.297Z,-74
2018-12-11T13:39:03.836Z,-76
2018-12-11T13:40:03.647Z,-78
2018-12-11T13:41:04.010Z,-79
2018-12-11T13:42:05.482Z,-79
2018-12-11T13:43:03.953Z,-79
2018-12-11T13:44:03.960Z,-78
2018-12-11T13:45:03.695Z,-78
2018-12-11T13:46:04.691Z,-78